createdAt,value
2022-11-17T00:02:42.250Z,4.20
2022-11-17T00:05:13.187Z,4.20
2022-11-17T00:07:41.586Z,4.10
2022-11-17T00:10:09.982Z,4.10
2022-11-17T00:12:55.477Z,4.10
2022-11-17T00:15:23.651Z,4.10
2022-11-17T00:18:11.839Z,4.10
2022-11-17T00:20:59.707Z,4.20
2022-11-17T00:23:46.898Z,4.10
2022-11-17T00:26:17.233Z,4.10
2022-11-17T00:28:45.717Z,4.10
2022-11-17T00:31:32.455Z,4.00
2022-11-17T00:34:07.141Z,4.10
2022-11-17T00:36:42.351Z,4.00
2022-11-17T00:39:11.426Z,3.90
2022-11-17T00:41:39.663Z,3.90
2022-11-17T00:44:08.632Z,4.00
2022-11-17T00:46:38.150Z,3.90
2022-11-17T00:49:07.570Z,3.90
2022-11-17T00:51:38.530Z,4.00
2022-11-17T00:54:11.123Z,3.90
2022-11-17T00:56:39.545Z,3.90
2022-11-17T00:59:07.758Z,3.90
2022-11-17T01:01:36.020Z,3.90
2022-11-17T01:04:05.107Z,3.80
2022-11-17T01:06:34.960Z,3.80
2022-11-17T01:09:04.996Z,3.80
2022-11-17T01:11:34.978Z,3.80
2022-11-17T01:14:03.504Z,3.80
2022-11-17T01:16:32.916Z,3.80
2022-11-17T01:19:02.715Z,3.80
2022-11-17T01:21:32.226Z,3.80
2022-11-17T01:24:02.343Z,3.80
2022-11-17T01:26:32.643Z,3.80
2022-11-17T01:29:03.680Z,3.70
2022-11-17T01:31:33.383Z,3.70
2022-11-17T01:34:02.043Z,3.70
2022-11-17T01:36:51.919Z,3.70
2022-11-17T01:39:25.007Z,3.70
2022-11-17T01:41:53.875Z,3.70
2022-11-17T01:44:56.880Z,3.70
2022-11-17T01:47:30.578Z,3.70
2022-11-17T01:50:04.899Z,3.70
2022-11-17T01:52:35.811Z,3.60
2022-11-17T01:55:05.341Z,3.70
2022-11-17T01:57:39.147Z,3.60
2022-11-17T02:00:11.324Z,3.60
2022-11-17T02:02:42.111Z,3.70
2022-11-17T02:05:20.951Z,3.70
2022-11-17T02:07:52.150Z,3.60
2022-11-17T02:10:20.429Z,3.70
2022-11-17T02:12:49.894Z,3.70
2022-11-17T02:15:19.735Z,3.70
2022-11-17T02:17:48.063Z,3.70
2022-11-17T02:20:21.682Z,3.70
2022-11-17T02:23:15.449Z,3.70
2022-11-17T02:25:59.674Z,3.70
2022-11-17T02:28:31.174Z,3.60
2022-11-17T02:31:14.804Z,3.70
2022-11-17T02:33:54.056Z,3.60
2022-11-17T02:36:29.199Z,3.60
2022-11-17T02:39:03.953Z,3.60
2022-11-17T02:41:39.224Z,3.60
2022-11-17T02:44:11.226Z,3.60
2022-11-17T02:46:46.235Z,3.60
2022-11-17T02:49:20.844Z,3.60
2022-11-17T02:51:52.429Z,3.60
2022-11-17T02:54:22.435Z,3.60
2022-11-17T02:56:50.753Z,3.60
2022-11-17T02:59:25.646Z,3.60
2022-11-17T03:02:20.867Z,3.60
2022-11-17T03:05:01.190Z,3.60
2022-11-17T03:07:43.098Z,3.50
2022-11-17T03:10:16.065Z,3.50
2022-11-17T03:12:51.203Z,3.50
2022-11-17T03:15:28.756Z,3.50
2022-11-17T03:18:05.215Z,3.60
2022-11-17T03:20:41.431Z,3.60
2022-11-17T03:23:14.980Z,3.60
2022-11-17T03:25:46.720Z,3.50
2022-11-17T03:28:16.798Z,3.50
2022-11-17T03:30:49.339Z,3.50
2022-11-17T03:33:21.904Z,3.50
2022-11-17T03:35:53.751Z,3.50
2022-11-17T03:38:27.831Z,3.50
2022-11-17T03:40:59.246Z,3.50
2022-11-17T03:43:29.957Z,3.50
2022-11-17T03:46:05.135Z,3.50
2022-11-17T03:48:38.924Z,3.40
2022-11-17T03:51:11.847Z,3.50
2022-11-17T03:53:40.059Z,3.50
2022-11-17T03:56:21.078Z,3.50
2022-11-17T03:58:57.871Z,3.50
2022-11-17T04:01:30.000Z,3.50
2022-11-17T04:03:58.316Z,3.50
2022-11-17T04:06:26.664Z,3.50
2022-11-17T04:08:54.855Z,3.50
2022-11-17T04:11:40.380Z,3.50
2022-11-17T04:14:25.924Z,3.50
2022-11-17T04:16:55.642Z,3.50
2022-11-17T04:19:23.876Z,3.50
2022-11-17T04:21:52.150Z,3.50
2022-11-17T04:24:22.881Z,3.50
2022-11-17T04:27:08.384Z,3.60
2022-11-17T04:29:36.520Z,3.60
2022-11-17T04:32:06.223Z,3.50
2022-11-17T04:34:34.507Z,3.60
2022-11-17T04:37:07.961Z,3.50
2022-11-17T04:39:39.955Z,3.60
2022-11-17T04:42:07.280Z,3.60
2022-11-17T04:44:35.462Z,3.60
2022-11-17T04:47:06.928Z,3.60
2022-11-17T04:49:35.251Z,3.50
2022-11-17T04:52:03.708Z,3.60
2022-11-17T04:54:31.884Z,3.60
2022-11-17T04:57:00.159Z,3.60
2022-11-17T04:59:28.390Z,3.60
2022-11-17T05:01:58.786Z,3.60
2022-11-17T05:04:49.720Z,3.60
2022-11-17T05:07:18.149Z,3.60
2022-11-17T05:09:46.585Z,3.60
2022-11-17T05:12:32.194Z,3.70
2022-11-17T05:15:00.390Z,3.70
2022-11-17T05:17:27.676Z,3.70
2022-11-17T05:19:57.937Z,3.60
2022-11-17T05:22:43.784Z,3.60
2022-11-17T05:25:12.009Z,3.70
2022-11-17T05:27:40.144Z,3.60
2022-11-17T05:30:10.012Z,3.60
2022-11-17T05:32:38.553Z,3.60
2022-11-17T05:35:09.252Z,3.70
2022-11-17T05:37:37.489Z,3.70
2022-11-17T05:40:06.567Z,3.70
2022-11-17T05:42:35.918Z,3.70
2022-11-17T05:45:04.273Z,3.70
2022-11-17T05:47:32.512Z,3.80
2022-11-17T05:50:00.713Z,3.80
2022-11-17T05:52:30.271Z,3.80
2022-11-17T05:54:58.494Z,3.80
2022-11-17T05:57:32.012Z,3.80
2022-11-17T06:00:04.648Z,3.90
2022-11-17T06:02:45.556Z,3.90
2022-11-17T06:05:19.824Z,3.90
2022-11-17T06:07:50.201Z,3.90
2022-11-17T06:10:18.853Z,3.90
2022-11-17T06:12:47.395Z,3.90
2022-11-17T06:15:15.816Z,3.90
2022-11-17T06:17:48.216Z,3.90
2022-11-17T06:20:22.580Z,3.90
2022-11-17T06:22:52.460Z,3.90
2022-11-17T06:25:21.754Z,4.00
2022-11-17T06:27:51.326Z,4.00
2022-11-17T06:30:20.228Z,4.00
2022-11-17T06:32:50.764Z,4.00
2022-11-17T06:35:19.208Z,4.00
2022-11-17T06:37:47.449Z,4.10
2022-11-17T06:40:17.639Z,4.00
2022-11-17T06:43:03.012Z,4.10
2022-11-17T06:45:34.114Z,4.10
2022-11-17T06:48:02.332Z,4.10
2022-11-17T06:50:32.932Z,4.10
2022-11-17T06:53:02.472Z,4.20
2022-11-17T06:55:35.091Z,4.20
2022-11-17T06:58:05.439Z,4.20
2022-11-17T07:00:34.030Z,4.20
2022-11-17T07:03:03.605Z,4.20
2022-11-17T07:05:32.933Z,4.20
2022-11-17T07:08:02.431Z,4.20
2022-11-17T07:10:31.958Z,4.20
2022-11-17T07:13:01.825Z,4.20
2022-11-17T07:15:30.262Z,4.20
2022-11-17T07:17:59.376Z,4.30
2022-11-17T07:20:27.752Z,4.20
2022-11-17T07:23:00.937Z,4.30
2022-11-17T07:25:31.110Z,4.30
2022-11-17T07:28:01.432Z,4.30
2022-11-17T07:30:29.667Z,4.30
2022-11-17T07:33:00.042Z,4.30
2022-11-17T07:35:28.546Z,4.40
2022-11-17T07:37:59.259Z,4.40
2022-11-17T07:40:27.422Z,4.40
2022-11-17T07:42:55.852Z,4.40
2022-11-17T07:45:31.416Z,4.40
2022-11-17T07:48:02.201Z,4.40
2022-11-17T07:50:30.799Z,4.40
2022-11-17T07:52:59.637Z,4.40
2022-11-17T07:55:27.952Z,4.50
2022-11-17T07:57:57.333Z,4.50
2022-11-17T08:00:27.506Z,4.50
2022-11-17T08:02:55.709Z,4.50
2022-11-17T08:05:24.791Z,4.60
2022-11-17T08:07:56.494Z,4.60
2022-11-17T08:10:26.993Z,4.60
2022-11-17T08:12:56.022Z,4.60
2022-11-17T08:15:24.286Z,4.60
2022-11-17T08:17:58.108Z,4.60
2022-11-17T08:20:27.732Z,4.70
2022-11-17T08:22:56.155Z,4.70
2022-11-17T08:25:26.277Z,4.70
2022-11-17T08:27:56.170Z,4.70
2022-11-17T08:30:25.042Z,4.70
2022-11-17T08:32:56.997Z,4.70
2022-11-17T08:35:26.758Z,4.60
2022-11-17T08:37:58.229Z,4.70
2022-11-17T08:40:27.161Z,4.70
2022-11-17T08:43:00.865Z,4.70
2022-11-17T08:45:29.618Z,4.70
2022-11-17T08:47:59.295Z,4.70
2022-11-17T08:50:27.597Z,4.70
2022-11-17T08:52:55.666Z,4.60
2022-11-17T08:55:23.949Z,4.70
2022-11-17T08:57:52.121Z,4.70
2022-11-17T09:00:21.873Z,4.70
2022-11-17T09:02:50.084Z,4.70
2022-11-17T09:05:19.640Z,4.70
2022-11-17T09:07:47.908Z,4.60
2022-11-17T09:10:16.151Z,4.70
2022-11-17T09:12:44.532Z,4.70
2022-11-17T09:15:13.049Z,4.70
2022-11-17T09:17:43.050Z,4.80
2022-11-17T09:20:12.252Z,4.80
2022-11-17T09:22:41.839Z,4.80
2022-11-17T09:25:13.469Z,4.80
2022-11-17T09:27:41.996Z,4.70
2022-11-17T09:30:11.162Z,4.80
2022-11-17T09:32:39.366Z,4.70
2022-11-17T09:35:09.300Z,4.70
2022-11-17T09:37:37.470Z,4.80
2022-11-17T09:40:08.583Z,4.70
2022-11-17T09:42:40.902Z,4.80
2022-11-17T09:45:14.673Z,4.80
2022-11-17T09:47:48.876Z,4.80
2022-11-17T09:50:23.283Z,4.80
2022-11-17T09:52:59.553Z,4.80
2022-11-17T09:55:34.584Z,4.70
2022-11-17T09:58:12.124Z,4.80
2022-11-17T10:00:42.735Z,4.80
2022-11-17T10:03:20.051Z,4.80
2022-11-17T10:05:49.030Z,4.80
2022-11-17T10:08:20.446Z,4.80
2022-11-17T10:10:53.544Z,4.80
2022-11-17T10:13:28.171Z,4.80
2022-11-17T10:15:58.875Z,4.80
2022-11-17T10:18:38.239Z,4.80
2022-11-17T10:21:10.244Z,4.90
2022-11-17T10:23:47.383Z,4.90
2022-11-17T10:26:17.545Z,4.90
2022-11-17T10:28:45.992Z,4.90
2022-11-17T10:31:15.849Z,5.00
2022-11-17T10:33:46.545Z,4.90
2022-11-17T10:36:21.984Z,5.00
2022-11-17T10:38:52.396Z,4.90
2022-11-17T10:41:24.831Z,5.00
2022-11-17T10:44:02.388Z,4.90
2022-11-17T10:46:41.589Z,4.90
2022-11-17T10:49:25.304Z,4.90
2022-11-17T10:52:07.046Z,4.90
2022-11-17T10:54:35.200Z,4.90
2022-11-17T10:57:08.915Z,4.90
2022-11-17T10:59:45.133Z,5.00
2022-11-17T11:02:28.563Z,4.90
2022-11-17T11:05:08.214Z,4.90
2022-11-17T11:07:37.164Z,4.90
2022-11-17T11:10:15.669Z,4.90
2022-11-17T11:12:49.977Z,5.00
2022-11-17T11:15:21.655Z,5.00
2022-11-17T11:17:50.094Z,5.00
2022-11-17T11:20:21.045Z,4.90
2022-11-17T11:22:58.269Z,5.00
2022-11-17T11:25:35.713Z,5.00
2022-11-17T11:28:20.412Z,5.00
2022-11-17T11:30:59.255Z,4.90
2022-11-17T11:33:35.416Z,5.00
2022-11-17T11:36:23.176Z,5.00
2022-11-17T11:38:58.722Z,5.00
2022-11-17T11:41:43.219Z,5.00
2022-11-17T11:44:38.613Z,5.00
2022-11-17T11:47:17.809Z,5.00
2022-11-17T11:49:50.465Z,5.00
2022-11-17T11:52:22.039Z,5.00
2022-11-17T11:54:55.399Z,5.00
2022-11-17T11:57:28.294Z,5.00
2022-11-17T12:00:04.473Z,5.00
2022-11-17T12:02:43.716Z,5.00
2022-11-17T12:05:21.693Z,5.10
2022-11-17T12:07:55.574Z,5.00
2022-11-17T12:10:32.758Z,5.00
2022-11-17T12:13:01.830Z,5.10
2022-11-17T12:15:38.363Z,5.00
2022-11-17T12:18:13.745Z,5.00
2022-11-17T12:21:03.994Z,5.10
2022-11-17T12:23:50.350Z,5.20
2022-11-17T12:26:24.474Z,5.10
2022-11-17T12:29:26.931Z,5.00
2022-11-17T12:31:57.729Z,5.10
2022-11-17T12:34:28.875Z,5.10
2022-11-17T12:37:22.070Z,5.10
2022-11-17T12:39:57.579Z,5.20
2022-11-17T12:42:25.843Z,5.10
2022-11-17T12:44:58.565Z,5.10
2022-11-17T12:47:30.356Z,5.10
2022-11-17T12:50:24.875Z,5.00
2022-11-17T12:53:12.218Z,5.00
2022-11-17T12:55:56.255Z,5.10
2022-11-17T12:58:32.054Z,5.10
2022-11-17T13:01:08.924Z,5.10
2022-11-17T13:03:47.852Z,5.10
2022-11-17T13:09:07.288Z,5.00
2022-11-17T13:11:36.490Z,5.00
2022-11-17T13:14:14.101Z,5.00
2022-11-17T13:16:46.808Z,5.00
2022-11-17T13:19:39.805Z,5.10
2022-11-17T13:22:16.715Z,5.00
2022-11-17T13:24:47.297Z,5.00
2022-11-17T13:27:23.439Z,5.00
2022-11-17T13:29:51.752Z,5.00
2022-11-17T13:32:23.856Z,5.00
2022-11-17T13:34:57.259Z,5.00
2022-11-17T13:37:29.720Z,5.00
2022-11-17T13:40:02.835Z,5.00
2022-11-17T13:42:33.317Z,5.00
2022-11-17T13:45:04.662Z,5.00
2022-11-17T13:47:45.519Z,5.00
2022-11-17T13:50:33.805Z,5.00
2022-11-17T13:53:05.115Z,4.90
2022-11-17T13:55:34.750Z,4.90
2022-11-17T13:58:05.006Z,4.90
2022-11-17T14:00:34.355Z,4.90
2022-11-17T14:03:04.532Z,4.90
2022-11-17T14:05:34.544Z,4.90
2022-11-17T14:08:13.945Z,4.90
2022-11-17T14:10:42.645Z,4.80
2022-11-17T14:13:21.971Z,4.80
2022-11-17T14:15:59.639Z,4.80
2022-11-17T14:18:37.302Z,4.70
2022-11-17T14:21:13.103Z,4.70
2022-11-17T14:23:41.778Z,4.70
2022-11-17T14:26:24.271Z,4.70
2022-11-17T14:28:53.378Z,4.70
2022-11-17T14:31:21.907Z,4.70
2022-11-17T14:33:50.448Z,4.60
2022-11-17T14:36:20.137Z,4.70
2022-11-17T14:38:48.746Z,4.60
2022-11-17T14:41:17.922Z,4.60
2022-11-17T14:43:46.156Z,4.70
2022-11-17T14:46:20.630Z,4.70
2022-11-17T14:48:48.844Z,4.50
2022-11-17T14:51:17.243Z,4.60
2022-11-17T14:53:47.806Z,4.60
2022-11-17T14:56:24.710Z,4.60
2022-11-17T14:58:55.595Z,4.60
2022-11-17T15:01:25.720Z,4.60
2022-11-17T15:03:55.227Z,4.50
2022-11-17T15:06:24.377Z,4.50
2022-11-17T15:08:58.432Z,4.50
2022-11-17T15:11:27.860Z,4.50
2022-11-17T15:13:56.266Z,4.50
2022-11-17T15:16:24.575Z,4.50
2022-11-17T15:18:52.823Z,4.40
2022-11-17T15:21:21.215Z,4.40
2022-11-17T15:23:49.430Z,4.40
2022-11-17T15:26:23.368Z,4.40
2022-11-17T15:28:51.688Z,4.40
2022-11-17T15:31:21.011Z,4.30
2022-11-17T15:33:49.606Z,4.40
2022-11-17T15:36:19.917Z,4.40
2022-11-17T15:38:48.544Z,4.40
2022-11-17T15:41:19.402Z,4.40
2022-11-17T15:43:47.674Z,4.40
2022-11-17T15:46:17.902Z,4.40
2022-11-17T15:48:49.239Z,4.30
2022-11-17T15:51:19.153Z,4.30
2022-11-17T15:53:48.417Z,4.30
2022-11-17T15:56:20.179Z,4.30
2022-11-17T15:58:49.666Z,4.30
2022-11-17T16:01:26.731Z,4.20
2022-11-17T16:03:59.607Z,4.20
2022-11-17T16:06:27.554Z,4.20
2022-11-17T16:08:56.226Z,4.20
2022-11-17T16:11:26.954Z,4.20
2022-11-17T16:13:55.608Z,4.20
2022-11-17T16:16:25.820Z,4.20
2022-11-17T16:18:54.386Z,4.20
2022-11-17T16:21:22.746Z,4.10
2022-11-17T16:23:53.188Z,4.20
2022-11-17T16:26:22.088Z,4.10
2022-11-17T16:28:58.562Z,4.00
2022-11-17T16:31:28.546Z,4.00
2022-11-17T16:33:58.548Z,4.00
2022-11-17T16:36:34.358Z,4.00
2022-11-17T16:39:05.156Z,4.00
2022-11-17T16:41:38.851Z,3.90
2022-11-17T16:44:11.752Z,4.00
2022-11-17T16:46:43.189Z,3.90
2022-11-17T16:49:14.108Z,3.80
2022-11-17T16:51:47.098Z,3.80
2022-11-17T16:54:15.519Z,3.80
2022-11-17T16:56:43.908Z,3.70
2022-11-17T16:59:14.485Z,3.70
2022-11-17T17:01:43.098Z,3.80
2022-11-17T17:04:12.214Z,3.70
2022-11-17T17:06:41.430Z,3.80
2022-11-17T17:09:11.692Z,3.80
2022-11-17T17:11:40.242Z,3.80
2022-11-17T17:14:10.647Z,3.80
2022-11-17T17:16:40.408Z,3.80
2022-11-17T17:19:10.365Z,3.70
2022-11-17T17:21:39.798Z,3.80
2022-11-17T17:24:08.588Z,3.80
2022-11-17T17:26:37.779Z,3.80
2022-11-17T17:29:08.070Z,3.70
2022-11-17T17:31:38.088Z,3.70
2022-11-17T17:34:08.836Z,3.70
2022-11-17T17:36:38.484Z,3.70
2022-11-17T17:39:07.013Z,3.60
2022-11-17T17:41:41.095Z,3.70
2022-11-17T17:44:14.217Z,3.60
2022-11-17T17:46:45.283Z,3.60
2022-11-17T17:49:15.199Z,3.60
2022-11-17T17:51:45.044Z,3.60
2022-11-17T17:54:17.039Z,3.60
2022-11-17T17:56:45.500Z,3.60
2022-11-17T17:59:16.996Z,3.60
2022-11-17T18:01:47.641Z,3.70
2022-11-17T18:04:17.756Z,3.70
2022-11-17T18:06:47.895Z,3.70
2022-11-17T18:09:19.374Z,3.60
2022-11-17T18:11:50.081Z,3.60
2022-11-17T18:14:29.477Z,3.50
2022-11-17T18:16:57.704Z,3.50
2022-11-17T18:19:32.731Z,3.50
2022-11-17T18:22:01.424Z,3.50
2022-11-17T18:24:47.622Z,3.50
2022-11-17T18:27:22.444Z,3.50
2022-11-17T18:29:50.634Z,3.40
2022-11-17T18:32:18.829Z,3.40
2022-11-17T18:34:48.457Z,3.40
2022-11-17T18:37:16.752Z,3.30
2022-11-17T18:39:45.172Z,3.30
2022-11-17T18:42:15.009Z,3.30
2022-11-17T18:44:43.127Z,3.40
2022-11-17T18:47:11.268Z,3.40
2022-11-17T18:49:42.186Z,3.40
2022-11-17T18:52:13.097Z,3.30
2022-11-17T18:54:41.609Z,3.30
2022-11-17T18:57:09.744Z,3.20
2022-11-17T18:59:37.869Z,3.20
2022-11-17T19:02:06.104Z,3.20
2022-11-17T19:04:34.272Z,3.20
2022-11-17T19:07:02.435Z,3.20
2022-11-17T19:09:34.938Z,3.20
2022-11-17T19:12:03.092Z,3.20
2022-11-17T19:14:31.322Z,3.20
2022-11-17T19:16:59.496Z,3.10
2022-11-17T19:19:27.618Z,3.20
2022-11-17T19:21:55.710Z,3.20
2022-11-17T19:24:23.810Z,3.20
2022-11-17T19:26:53.337Z,3.10
2022-11-17T19:29:21.876Z,3.10
2022-11-17T19:31:52.396Z,3.20
2022-11-17T19:34:20.709Z,3.10
2022-11-17T19:36:49.998Z,3.10
2022-11-17T19:39:18.528Z,3.10
2022-11-17T19:41:47.730Z,3.00
2022-11-17T19:44:17.411Z,3.10
2022-11-17T19:46:47.760Z,3.00
2022-11-17T19:49:16.051Z,3.00
2022-11-17T19:51:44.389Z,2.90
2022-11-17T19:54:14.166Z,2.80
2022-11-17T19:56:42.343Z,2.80
2022-11-17T19:59:15.740Z,2.80
2022-11-17T20:01:46.818Z,2.80
2022-11-17T20:04:15.226Z,2.70
2022-11-17T20:06:43.518Z,2.70
2022-11-17T20:09:13.931Z,2.70
2022-11-17T20:11:42.711Z,2.70
2022-11-17T20:14:10.856Z,2.80
2022-11-17T20:16:39.470Z,2.70
2022-11-17T20:19:10.438Z,2.70
2022-11-17T20:21:38.500Z,2.70
2022-11-17T20:24:07.106Z,2.70
2022-11-17T20:26:36.185Z,2.60
2022-11-17T20:29:04.288Z,2.60
2022-11-17T20:31:34.178Z,2.70
2022-11-17T20:34:04.179Z,2.60
2022-11-17T20:36:35.037Z,2.60
2022-11-17T20:39:07.672Z,2.60
2022-11-17T20:41:36.147Z,2.60
2022-11-17T20:44:04.656Z,2.60
2022-11-17T20:46:33.114Z,2.60
2022-11-17T20:49:03.442Z,2.60
2022-11-17T20:51:35.418Z,2.50
2022-11-17T20:54:05.814Z,2.50
2022-11-17T20:56:34.072Z,2.60
2022-11-17T20:59:02.300Z,2.60
2022-11-17T21:01:30.480Z,2.50
2022-11-17T21:03:58.795Z,2.60
2022-11-17T21:06:27.839Z,2.50
2022-11-17T21:08:57.616Z,2.40
2022-11-17T21:11:43.641Z,2.40
2022-11-17T21:14:15.701Z,2.40
2022-11-17T21:16:45.643Z,2.40
2022-11-17T21:19:15.157Z,2.40
2022-11-17T21:21:43.844Z,2.40
2022-11-17T21:24:13.513Z,2.40
2022-11-17T21:26:41.724Z,2.40
2022-11-17T21:29:09.825Z,2.50
2022-11-17T21:31:40.094Z,2.40
2022-11-17T21:34:08.707Z,2.40
2022-11-17T21:36:37.172Z,2.40
2022-11-17T21:39:05.705Z,2.40
2022-11-17T21:41:37.765Z,2.40
2022-11-17T21:44:06.301Z,2.50
2022-11-17T21:46:36.089Z,2.40
2022-11-17T21:49:04.756Z,2.40
2022-11-17T21:51:38.206Z,2.40
2022-11-17T21:54:08.071Z,2.40
2022-11-17T21:56:37.854Z,2.40
2022-11-17T21:59:08.401Z,2.40
2022-11-17T22:01:37.433Z,2.40
2022-11-17T22:04:06.011Z,2.40
2022-11-17T22:06:34.370Z,2.40
2022-11-17T22:09:02.596Z,2.30
2022-11-17T22:11:39.115Z,2.30
2022-11-17T22:14:11.076Z,2.40
2022-11-17T22:16:41.026Z,2.40
2022-11-17T22:19:12.590Z,2.40
2022-11-17T22:21:41.384Z,2.40
2022-11-17T22:24:11.432Z,2.30
2022-11-17T22:26:41.201Z,2.30
2022-11-17T22:29:12.621Z,2.30
2022-11-17T22:31:40.899Z,2.30
2022-11-17T22:34:09.082Z,2.30
2022-11-17T22:36:37.542Z,2.30
2022-11-17T22:39:06.556Z,2.20
2022-11-17T22:41:37.490Z,2.30
2022-11-17T22:44:06.283Z,2.30
2022-11-17T22:46:36.357Z,2.20
2022-11-17T22:49:04.504Z,2.30
2022-11-17T22:51:50.004Z,2.20
2022-11-17T22:54:18.181Z,2.20
2022-11-17T22:56:46.369Z,2.20
2022-11-17T22:59:14.868Z,2.20
2022-11-17T23:01:44.637Z,2.20
2022-11-17T23:04:12.960Z,2.10
2022-11-17T23:06:41.044Z,2.10
2022-11-17T23:09:09.175Z,2.10
2022-11-17T23:11:38.557Z,2.10
2022-11-17T23:14:08.234Z,2.10
2022-11-17T23:16:36.689Z,2.10
2022-11-17T23:19:09.429Z,2.10
2022-11-17T23:21:40.227Z,2.10
2022-11-17T23:24:12.444Z,2.00
2022-11-17T23:26:41.083Z,2.00
2022-11-17T23:29:10.402Z,2.00
2022-11-17T23:31:39.131Z,2.00
2022-11-17T23:34:10.049Z,2.00
2022-11-17T23:36:39.467Z,2.00
2022-11-17T23:39:07.763Z,1.90
2022-11-17T23:41:35.947Z,1.90
2022-11-17T23:44:04.119Z,1.80
2022-11-17T23:46:32.278Z,1.80
2022-11-17T23:49:00.410Z,1.70
2022-11-17T23:51:30.030Z,1.80
2022-11-17T23:54:00.214Z,1.80
2022-11-17T23:56:33.504Z,1.80
2022-11-17T23:59:01.903Z,1.80
